DucheSS Of Scandinavia — OUZI2 — position and weather

sailwx.info

Track history (hours):
 
Tides and Currents Weather Stations Pressure Air Temp Water Temp Dewpoint Dewpoint Depression Visibility Wind Speed Wind Dir Waves Ship Positions

DucheSS Of Scandinavia

Operator: DFDS A/S

Last reported at 2015-Feb-28 16:33 UTC. Time now 2015-Mar-03 07:27 UTC.
Position N 59°01' E 010°27'.

Length 134 m; draft 5.2 m.

Type: Passenger vessel. MMSI: 219002929.

Date/timePositionNaut miles runAvg speedWind from/ knotsBaromVisibWave heightAir tempDewpointWater temp
2015-Feb-28 16:33N 59°01' E 010°27'1515.0
2015-Feb-28 15:34N 59°00' E 010°56'3 2.1
2015-Feb-28 14:04N 58°59' E 011°01'816.0
2015-Feb-28 13:33N 59°02' E 010°46'1615.7
2015-Feb-28 12:32N 59°02' E 010°15'3 1.3
2015-Feb-28 10:33N 59°01' E 010°20'1414.2
2015-Feb-28 09:33N 59°02' E 010°47'4 1.9
2015-Feb-28 07:32N 59°01' E 010°54'1616.0
2015-Feb-28 06:33N 59°01' E 010°24'8 0.6
2015-Feb-27 17:15N 59°06' E 010°14'811.6
2015-Feb-27 16:33N 59°01' E 010°25'1515.1
2015-Feb-27 15:33N 59°01' E 010°54'9 9.3
2015-Feb-27 14:33N 58°56' E 011°10'1212.3
2015-Feb-27 13:33N 59°01' E 010°49'1615.9
2015-Feb-27 12:33N 59°01' E 010°18'0 0.2
2015-Feb-27 10:33N 59°01' E 010°19'1414.3
2015-Feb-27 09:34N 59°02' E 010°47'5 2.3
2015-Feb-27 07:33N 59°00' E 010°55'1515.5
2015-Feb-27 06:33N 59°01' E 010°25'1 0.1
2015-Feb-26 16:33N 59°01' E 010°23'1616.0
2015-Feb-26 15:34N 59°01' E 010°54'7 5.4
2015-Feb-26 14:14N 58°56' E 011°05'1015.4
2015-Feb-26 13:33N 59°02' E 010°48'1615.6
2015-Feb-26 12:33N 59°01' E 010°17'7 6.1
2015-Feb-26 11:28N 59°08' E 010°14'7 7.5
2015-Feb-26 10:33N 59°01' E 010°19'1414.4
2015-Feb-26 09:33N 59°02' E 010°47'5 2.3
2015-Feb-26 07:33N 59°00' E 010°55'1615.6
2015-Feb-26 06:33N 59°01' E 010°25'1 0.1
2015-Feb-25 16:33N 59°01' E 010°24'1615.9
2015-Feb-25 15:33N 59°01' E 010°54'7 5.4
2015-Feb-25 14:15N 58°56' E 011°05'1115.2
2015-Feb-25 13:33N 59°02' E 010°48'1515.4
2015-Feb-25 12:33N 59°01' E 010°18'1 0.3
2015-Feb-25 10:33N 59°01' E 010°19'1514.8
2015-Feb-25 09:33N 59°02' E 010°47'5 2.5
2015-Feb-25 07:33N 59°00' E 010°57'1615.7
2015-Feb-25 06:33N 59°01' E 010°26'1 0.1
2015-Feb-24 16:33N 59°01' E 010°25'1515.5
2015-Feb-24 15:33N 59°01' E 010°55'7 4.9
2015-Feb-24 14:12N 58°56' E 011°05'1015.3
2015-Feb-24 13:33N 59°02' E 010°49'1615.9
2015-Feb-24 12:33N 59°01' E 010°18'1 0.5
2015-Feb-24 10:33N 59°01' E 010°20'1414.1
2015-Feb-24 09:33N 59°02' E 010°47'5 2.7
2015-Feb-24 07:33N 59°00' E 010°57'1616.0
2015-Feb-24 06:33N 59°01' E 010°26'3 0.2
2015-Feb-23 16:24N 58°59' E 010°30'1214.5
2015-Feb-23 15:33N 59°01' E 010°54'6 4.7
2015-Feb-23 14:14N 58°57' E 011°03'1015.1
2015-Feb-23 13:33N 59°02' E 010°46'8 2.4
2015-Feb-23 10:20N 59°00' E 010°31'911.3
2015-Feb-23 09:33N 59°02' E 010°48'11 7.3
2015-Feb-23 08:06N 58°56' E 011°05'914.4
2015-Feb-23 07:29N 59°01' E 010°51'13 0.8
2015-Feb-22 16:33N 59°01' E 010°27'1515.3
2015-Feb-22 15:33N 59°00' E 010°56'8 7.2
2015-Feb-22 14:24N 58°56' E 011°10'1313.7
2015-Feb-22 13:27N 59°02' E 010°47'10 3.2
2015-Feb-22 10:18N 59°01' E 010°28'1114.6
2015-Feb-22 09:33N 59°02' E 010°49'12 9.3
2015-Feb-22 08:13N 58°56' E 011°10'811.9
2015-Feb-22 07:33N 59°00' E 010°57'23 2.8
2015-Feb-21 23:23N 59°06' E 010°14'9 1.3
2015-Feb-21 16:33N 59°01' E 010°27'1515.2
2015-Feb-21 15:34N 59°00' E 010°56'6 4.8
2015-Feb-21 14:13N 58°56' E 011°05'1116.2
2015-Feb-21 13:33N 59°02' E 010°47'15 4.8
2015-Feb-21 10:33N 59°01' E 010°19'1514.6
2015-Feb-21 09:34N 59°02' E 010°47'2 1.1
2015-Feb-21 07:27N 59°01' E 010°52'1915.8
2015-Feb-21 06:17N 59°02' E 010°16'6 0.5
2015-Feb-20 16:33N 59°01' E 010°28'1515.3
2015-Feb-20 15:34N 59°00' E 010°57'6 4.2
2015-Feb-20 14:13N 58°56' E 011°05'1116.1
2015-Feb-20 13:33N 59°02' E 010°48'14 4.6
2015-Feb-20 10:32N 59°01' E 010°21'1515.0
2015-Feb-20 09:34N 59°02' E 010°49'1 0.7
2015-Feb-20 07:27N 59°01' E 010°52'1516.7
2015-Feb-20 06:33N 59°01' E 010°22'4 0.3
2015-Feb-19 17:16N 59°02' E 010°15'1014.3
2015-Feb-19 16:33N 58°60' E 010°34'1413.6
2015-Feb-19 15:34N 58°59' E 011°01'4 3.0
2015-Feb-19 14:18N 58°56' E 011°05'1115.2
2015-Feb-19 13:33N 59°01' E 010°46'12 4.0
2015-Feb-19 10:33N 58°60' E 010°23'1313.5
2015-Feb-19 09:34N 59°02' E 010°48'12 8.5
2015-Feb-19 08:08N 58°56' E 011°09'915.4
2015-Feb-19 07:33N 59°01' E 010°55'1616.2
2015-Feb-19 06:33N 58°60' E 010°23'2 0.1
2015-Feb-18 16:34N 59°00' E 010°26'  
Track history (hours):
 
Tides and Currents Weather Stations Pressure Air Temp Water Temp Dewpoint Dewpoint Depression Visibility Wind Speed Wind Dir Waves Ship Positions

DucheSS Of Scandinavia

Operator: DFDS A/S

Last reported at 2015-Feb-28 16:33 UTC. Time now 2015-Mar-03 07:27 UTC.
Position N 59°01' E 010°27'.

Length 134 m; draft 5.2 m.

Type: Passenger vessel. MMSI: 219002929.

Date/timePositionNaut miles runAvg speedWind from/ knotsBaromVisibWave heightAir tempDewpointWater temp
2015-Feb-28 16:33N 59°01' E 010°27'1515.0
2015-Feb-28 15:34N 59°00' E 010°56'3 2.1
2015-Feb-28 14:04N 58°59' E 011°01'816.0
2015-Feb-28 13:33N 59°02' E 010°46'1615.7
2015-Feb-28 12:32N 59°02' E 010°15'3 1.3
2015-Feb-28 10:33N 59°01' E 010°20'1414.2
2015-Feb-28 09:33N 59°02' E 010°47'4 1.9
2015-Feb-28 07:32N 59°01' E 010°54'1616.0
2015-Feb-28 06:33N 59°01' E 010°24'8 0.6
2015-Feb-27 17:15N 59°06' E 010°14'811.6
2015-Feb-27 16:33N 59°01' E 010°25'1515.1
2015-Feb-27 15:33N 59°01' E 010°54'9 9.3
2015-Feb-27 14:33N 58°56' E 011°10'1212.3
2015-Feb-27 13:33N 59°01' E 010°49'1615.9
2015-Feb-27 12:33N 59°01' E 010°18'0 0.2
2015-Feb-27 10:33N 59°01' E 010°19'1414.3
2015-Feb-27 09:34N 59°02' E 010°47'5 2.3
2015-Feb-27 07:33N 59°00' E 010°55'1515.5
2015-Feb-27 06:33N 59°01' E 010°25'1 0.1
2015-Feb-26 16:33N 59°01' E 010°23'1616.0
2015-Feb-26 15:34N 59°01' E 010°54'7 5.4
2015-Feb-26 14:14N 58°56' E 011°05'1015.4
2015-Feb-26 13:33N 59°02' E 010°48'1615.6
2015-Feb-26 12:33N 59°01' E 010°17'7 6.1
2015-Feb-26 11:28N 59°08' E 010°14'7 7.5
2015-Feb-26 10:33N 59°01' E 010°19'1414.4
2015-Feb-26 09:33N 59°02' E 010°47'5 2.3
2015-Feb-26 07:33N 59°00' E 010°55'1615.6
2015-Feb-26 06:33N 59°01' E 010°25'1 0.1
2015-Feb-25 16:33N 59°01' E 010°24'1615.9
2015-Feb-25 15:33N 59°01' E 010°54'7 5.4
2015-Feb-25 14:15N 58°56' E 011°05'1115.2
2015-Feb-25 13:33N 59°02' E 010°48'1515.4
2015-Feb-25 12:33N 59°01' E 010°18'1 0.3
2015-Feb-25 10:33N 59°01' E 010°19'1514.8
2015-Feb-25 09:33N 59°02' E 010°47'5 2.5
2015-Feb-25 07:33N 59°00' E 010°57'1615.7
2015-Feb-25 06:33N 59°01' E 010°26'1 0.1
2015-Feb-24 16:33N 59°01' E 010°25'1515.5
2015-Feb-24 15:33N 59°01' E 010°55'7 4.9
2015-Feb-24 14:12N 58°56' E 011°05'1015.3
2015-Feb-24 13:33N 59°02' E 010°49'1615.9
2015-Feb-24 12:33N 59°01' E 010°18'1 0.5
2015-Feb-24 10:33N 59°01' E 010°20'1414.1
2015-Feb-24 09:33N 59°02' E 010°47'5 2.7
2015-Feb-24 07:33N 59°00' E 010°57'1616.0
2015-Feb-24 06:33N 59°01' E 010°26'3 0.2
2015-Feb-23 16:24N 58°59' E 010°30'1214.5
2015-Feb-23 15:33N 59°01' E 010°54'6 4.7
2015-Feb-23 14:14N 58°57' E 011°03'1015.1
2015-Feb-23 13:33N 59°02' E 010°46'8 2.4
2015-Feb-23 10:20N 59°00' E 010°31'911.3
2015-Feb-23 09:33N 59°02' E 010°48'11 7.3
2015-Feb-23 08:06N 58°56' E 011°05'914.4
2015-Feb-23 07:29N 59°01' E 010°51'13 0.8
2015-Feb-22 16:33N 59°01' E 010°27'1515.3
2015-Feb-22 15:33N 59°00' E 010°56'8 7.2
2015-Feb-22 14:24N 58°56' E 011°10'1313.7
2015-Feb-22 13:27N 59°02' E 010°47'10 3.2
2015-Feb-22 10:18N 59°01' E 010°28'1114.6
2015-Feb-22 09:33N 59°02' E 010°49'12 9.3
2015-Feb-22 08:13N 58°56' E 011°10'811.9
2015-Feb-22 07:33N 59°00' E 010°57'23 2.8
2015-Feb-21 23:23N 59°06' E 010°14'9 1.3
2015-Feb-21 16:33N 59°01' E 010°27'1515.2
2015-Feb-21 15:34N 59°00' E 010°56'6 4.8
2015-Feb-21 14:13N 58°56' E 011°05'1116.2
2015-Feb-21 13:33N 59°02' E 010°47'15 4.8
2015-Feb-21 10:33N 59°01' E 010°19'1514.6
2015-Feb-21 09:34N 59°02' E 010°47'2 1.1
2015-Feb-21 07:27N 59°01' E 010°52'1915.8
2015-Feb-21 06:17N 59°02' E 010°16'6 0.5
2015-Feb-20 16:33N 59°01' E 010°28'1515.3
2015-Feb-20 15:34N 59°00' E 010°57'6 4.2
2015-Feb-20 14:13N 58°56' E 011°05'1116.1
2015-Feb-20 13:33N 59°02' E 010°48'14 4.6
2015-Feb-20 10:32N 59°01' E 010°21'1515.0
2015-Feb-20 09:34N 59°02' E 010°49'1 0.7
2015-Feb-20 07:27N 59°01' E 010°52'1516.7
2015-Feb-20 06:33N 59°01' E 010°22'4 0.3
2015-Feb-19 17:16N 59°02' E 010°15'1014.3
2015-Feb-19 16:33N 58°60' E 010°34'1413.6
2015-Feb-19 15:34N 58°59' E 011°01'4 3.0
2015-Feb-19 14:18N 58°56' E 011°05'1115.2
2015-Feb-19 13:33N 59°01' E 010°46'12 4.0
2015-Feb-19 10:33N 58°60' E 010°23'1313.5
2015-Feb-19 09:34N 59°02' E 010°48'12 8.5
2015-Feb-19 08:08N 58°56' E 011°09'915.4
2015-Feb-19 07:33N 59°01' E 010°55'1616.2
2015-Feb-19 06:33N 58°60' E 010°23'2 0.1
2015-Feb-18 16:34N 59°00' E 010°26'  

Dump ship's entire track history